createdAt,value
2018-07-02T00:00:04.103Z,20.36
2018-07-02T00:00:43.096Z,20.21
2018-07-02T00:01:43.089Z,20.28
2018-07-02T00:02:43.079Z,20.24
2018-07-02T00:03:43.070Z,20.28
2018-07-02T00:04:43.061Z,20.28
2018-07-02T00:06:04.067Z,20.24
2018-07-02T00:06:43.062Z,20.29
2018-07-02T00:07:43.043Z,20.33
2018-07-02T00:08:43.037Z,20.29
2018-07-02T00:09:43.025Z,20.31
2018-07-02T00:10:43.017Z,20.24
2018-07-02T00:12:04.020Z,20.32
2018-07-02T00:12:43.010Z,20.18
2018-07-02T00:13:42.999Z,20.23
2018-07-02T00:14:42.991Z,20.24
2018-07-02T00:15:42.987Z,20.28
2018-07-02T00:16:42.978Z,20.29
2018-07-02T00:18:03.978Z,20.24
2018-07-02T00:18:42.961Z,20.24
2018-07-02T00:19:42.955Z,20.23
2018-07-02T00:20:42.951Z,20.31
2018-07-02T00:21:42.939Z,20.28
2018-07-02T00:22:42.939Z,20.31
2018-07-02T00:24:03.932Z,20.32
2018-07-02T00:24:42.919Z,20.33
2018-07-02T00:25:42.926Z,20.32
2018-07-02T00:26:42.908Z,20.28
2018-07-02T00:27:42.901Z,20.26
2018-07-02T00:28:42.892Z,20.33
2018-07-02T00:30:03.888Z,20.36
2018-07-02T00:30:42.868Z,20.31
2018-07-02T00:31:42.908Z,20.33
2018-07-02T00:32:42.866Z,20.33
2018-07-02T00:33:42.853Z,20.35
2018-07-02T00:34:42.845Z,20.35
2018-07-02T00:36:03.845Z,20.33
2018-07-02T00:36:42.827Z,20.31
2018-07-02T00:37:42.821Z,20.26
2018-07-02T00:38:42.821Z,20.24
2018-07-02T00:39:42.809Z,20.29
2018-07-02T00:40:42.807Z,20.28
2018-07-02T00:42:03.804Z,20.26
2018-07-02T00:42:42.788Z,20.28
2018-07-02T00:43:42.786Z,20.21
2018-07-02T00:44:42.776Z,20.23
2018-07-02T00:45:42.767Z,20.17
2018-07-02T00:46:42.767Z,20.13
2018-07-02T00:48:03.766Z,20.20
2018-07-02T00:48:42.747Z,20.17
2018-07-02T00:49:42.738Z,20.14
2018-07-02T00:50:42.736Z,20.14
2018-07-02T00:51:42.722Z,20.20
2018-07-02T00:52:42.718Z,20.20
2018-07-02T00:54:03.716Z,20.13
2018-07-02T00:54:42.704Z,20.13
2018-07-02T00:55:42.697Z,20.17
2018-07-02T00:56:42.690Z,20.10
2018-07-02T00:57:42.676Z,20.03
2018-07-02T00:58:42.674Z,19.99
2018-07-02T01:00:03.674Z,20.01
2018-07-02T01:00:42.661Z,20.05
2018-07-02T01:01:42.655Z,20.01
2018-07-02T01:02:42.641Z,20.01
2018-07-02T01:03:42.637Z,20.01
2018-07-02T01:04:42.629Z,20.02
2018-07-02T01:06:03.635Z,20.06
2018-07-02T01:06:42.614Z,19.99
2018-07-02T01:07:42.610Z,20.03
2018-07-02T01:08:42.606Z,19.92
2018-07-02T01:09:42.597Z,19.98
2018-07-02T01:10:42.588Z,19.87
2018-07-02T01:12:03.596Z,19.94
2018-07-02T01:12:42.577Z,19.92
2018-07-02T01:13:42.567Z,20.01
2018-07-02T01:14:42.555Z,20.03
2018-07-02T01:15:42.551Z,19.95
2018-07-02T01:16:42.545Z,20.02
2018-07-02T01:18:03.540Z,19.96
2018-07-02T01:18:42.525Z,20.05
2018-07-02T01:19:42.522Z,19.95
2018-07-02T01:20:42.518Z,19.95
2018-07-02T01:21:42.507Z,19.96
2018-07-02T01:22:42.507Z,19.88
2018-07-02T01:24:03.512Z,20.01
2018-07-02T01:24:42.485Z,19.94
2018-07-02T01:25:42.479Z,19.96
2018-07-02T01:26:42.467Z,19.99
2018-07-02T01:27:42.472Z,19.99
2018-07-02T01:28:42.455Z,19.87
2018-07-02T01:30:03.454Z,19.91
2018-07-02T01:30:42.446Z,19.96
2018-07-02T01:31:42.438Z,19.91
2018-07-02T01:32:42.428Z,19.92
2018-07-02T01:33:42.421Z,19.88
2018-07-02T01:34:42.410Z,19.96
2018-07-02T01:36:03.410Z,19.87
2018-07-02T01:36:42.396Z,19.91
2018-07-02T01:37:42.386Z,19.91
2018-07-02T01:38:42.377Z,19.94
2018-07-02T01:39:42.378Z,19.91
2018-07-02T01:40:42.367Z,19.86
2018-07-02T01:42:03.363Z,19.84
2018-07-02T01:42:42.351Z,19.91
2018-07-02T01:43:42.343Z,19.88
2018-07-02T01:44:42.337Z,19.88
2018-07-02T01:45:42.328Z,19.86
2018-07-02T01:46:42.322Z,19.91
2018-07-02T01:48:03.322Z,19.88
2018-07-02T01:48:42.306Z,19.86
2018-07-02T01:49:42.301Z,19.87
2018-07-02T01:50:42.294Z,19.77
2018-07-02T01:51:42.287Z,19.80
2018-07-02T01:52:42.277Z,19.76
2018-07-02T01:54:03.282Z,19.77
2018-07-02T01:54:42.264Z,19.73
2018-07-02T01:55:42.254Z,19.78
2018-07-02T01:56:42.246Z,19.78
2018-07-02T01:57:42.238Z,19.77
2018-07-02T01:58:42.231Z,19.78
2018-07-02T02:00:03.232Z,19.68
2018-07-02T02:00:42.217Z,19.77
2018-07-02T02:01:42.209Z,19.68
2018-07-02T02:02:42.198Z,19.78
2018-07-02T02:03:42.199Z,19.71
2018-07-02T02:04:42.193Z,19.73
2018-07-02T02:06:03.183Z,19.77
2018-07-02T02:06:42.179Z,19.76
2018-07-02T02:07:42.167Z,19.66
2018-07-02T02:08:42.156Z,19.62
2018-07-02T02:09:42.150Z,19.63
2018-07-02T02:10:42.142Z,19.61
2018-07-02T02:12:03.144Z,19.66
2018-07-02T02:12:42.137Z,19.63
2018-07-02T02:13:42.128Z,19.56
2018-07-02T02:14:42.112Z,19.61
2018-07-02T02:15:42.104Z,19.62
2018-07-02T02:16:42.098Z,19.59
2018-07-02T02:18:03.093Z,19.65
2018-07-02T02:18:42.085Z,19.61
2018-07-02T02:19:42.083Z,19.58
2018-07-02T02:20:42.072Z,19.48
2018-07-02T02:21:42.060Z,19.62
2018-07-02T02:22:42.076Z,19.59
2018-07-02T02:24:03.058Z,19.56
2018-07-02T02:24:42.040Z,19.59
2018-07-02T02:25:42.033Z,19.62
2018-07-02T02:26:42.020Z,19.62
2018-07-02T02:27:42.012Z,19.51
2018-07-02T02:28:42.019Z,19.65
2018-07-02T02:30:03.011Z,19.65
2018-07-02T02:30:41.996Z,19.54
2018-07-02T02:31:41.992Z,19.63
2018-07-02T02:32:41.979Z,19.54
2018-07-02T02:33:41.971Z,19.48
2018-07-02T02:34:41.958Z,19.40
2018-07-02T02:36:02.959Z,19.47
2018-07-02T02:36:41.950Z,19.43
2018-07-02T02:37:41.937Z,19.47
2018-07-02T02:38:41.934Z,19.36
2018-07-02T02:39:41.925Z,19.36
2018-07-02T02:40:41.913Z,19.21
2018-07-02T02:42:02.911Z,19.25
2018-07-02T02:42:41.900Z,19.25
2018-07-02T02:43:41.897Z,19.25
2018-07-02T02:44:41.888Z,19.25
2018-07-02T02:45:41.880Z,19.16
2018-07-02T02:46:41.871Z,19.26
2018-07-02T02:48:02.883Z,19.25
2018-07-02T02:48:41.857Z,19.25
2018-07-02T02:49:41.845Z,19.31
2018-07-02T02:50:41.841Z,19.31
2018-07-02T02:51:41.836Z,19.29
2018-07-02T02:52:41.821Z,19.25
2018-07-02T02:54:02.832Z,19.28
2018-07-02T02:54:41.810Z,19.29
2018-07-02T02:55:41.798Z,19.29
2018-07-02T02:56:41.794Z,19.23
2018-07-02T02:57:41.783Z,19.13
2018-07-02T02:58:41.781Z,19.21
2018-07-02T03:00:02.814Z,19.25
2018-07-02T03:00:41.758Z,19.26
2018-07-02T03:01:41.753Z,19.29
2018-07-02T03:02:41.741Z,19.28
2018-07-02T03:03:41.745Z,19.23
2018-07-02T03:04:41.734Z,19.28
2018-07-02T03:06:02.727Z,19.26
2018-07-02T03:06:41.718Z,19.29
2018-07-02T03:07:41.708Z,19.28
2018-07-02T03:08:41.702Z,19.29
2018-07-02T03:09:41.727Z,19.31
2018-07-02T03:10:41.686Z,19.29
2018-07-02T03:12:02.684Z,19.32
2018-07-02T03:12:41.668Z,19.29
2018-07-02T03:13:41.661Z,19.25
2018-07-02T03:14:41.652Z,19.21
2018-07-02T03:15:41.644Z,19.26
2018-07-02T03:16:41.638Z,19.29
2018-07-02T03:18:02.633Z,19.39
2018-07-02T03:18:41.625Z,19.28
2018-07-02T03:19:41.611Z,19.29
2018-07-02T03:20:41.609Z,19.36
2018-07-02T03:21:41.597Z,19.41
2018-07-02T03:22:41.588Z,19.28
2018-07-02T03:24:02.594Z,19.25
2018-07-02T03:24:41.577Z,19.29
2018-07-02T03:25:41.565Z,19.31
2018-07-02T03:26:41.561Z,19.29
2018-07-02T03:27:41.558Z,19.21
2018-07-02T03:28:41.547Z,19.28
2018-07-02T03:30:02.541Z,19.22
2018-07-02T03:30:41.528Z,19.16
2018-07-02T03:31:41.520Z,19.19
2018-07-02T03:32:41.522Z,19.16
2018-07-02T03:33:41.504Z,19.21
2018-07-02T03:34:41.505Z,19.16
2018-07-02T03:36:02.516Z,19.16
2018-07-02T03:36:41.480Z,19.13
2018-07-02T03:37:41.475Z,19.14
2018-07-02T03:38:41.466Z,19.14
2018-07-02T03:39:41.455Z,19.19
2018-07-02T03:40:41.453Z,19.18
2018-07-02T03:42:02.458Z,19.18
2018-07-02T03:42:41.434Z,19.21
2018-07-02T03:43:41.431Z,19.26
2018-07-02T03:44:41.422Z,19.31
2018-07-02T03:45:41.410Z,19.32
2018-07-02T03:46:41.405Z,19.26
2018-07-02T03:48:02.400Z,19.22
2018-07-02T03:48:41.387Z,19.28
2018-07-02T03:49:41.380Z,19.31
2018-07-02T03:50:41.372Z,19.26
2018-07-02T03:51:41.364Z,19.32
2018-07-02T03:52:41.358Z,19.28
2018-07-02T03:54:02.353Z,19.25
2018-07-02T03:54:41.345Z,19.31
2018-07-02T03:55:41.334Z,19.36
2018-07-02T03:56:41.327Z,19.25
2018-07-02T03:57:41.315Z,19.33
2018-07-02T03:58:41.305Z,19.32
2018-07-02T04:00:02.311Z,19.36
2018-07-02T04:00:41.294Z,19.32
2018-07-02T04:01:41.283Z,19.29
2018-07-02T04:02:41.278Z,19.26
2018-07-02T04:03:41.270Z,19.37
2018-07-02T04:04:41.262Z,19.36
2018-07-02T04:06:02.260Z,19.36
2018-07-02T04:06:41.248Z,19.36
2018-07-02T04:07:41.242Z,19.43
2018-07-02T04:08:41.232Z,19.40
2018-07-02T04:09:41.227Z,19.39
2018-07-02T04:10:41.215Z,19.43
2018-07-02T04:12:02.249Z,19.39
2018-07-02T04:12:41.197Z,19.43
2018-07-02T04:13:41.192Z,19.46
2018-07-02T04:14:41.187Z,19.37
2018-07-02T04:15:41.177Z,19.40
2018-07-02T04:16:41.170Z,19.37
2018-07-02T04:18:02.162Z,19.36
2018-07-02T04:18:41.148Z,19.40
2018-07-02T04:19:41.148Z,19.36
2018-07-02T04:20:41.138Z,19.44
2018-07-02T04:21:41.130Z,19.40
2018-07-02T04:22:41.120Z,19.46
2018-07-02T04:24:02.116Z,19.40
2018-07-02T04:24:41.106Z,19.46
2018-07-02T04:25:41.101Z,19.36
2018-07-02T04:26:41.090Z,19.37
2018-07-02T04:27:41.077Z,19.41
2018-07-02T04:28:41.076Z,19.48
2018-07-02T04:30:02.071Z,19.40
2018-07-02T04:30:41.058Z,19.46
2018-07-02T04:31:41.050Z,19.51
2018-07-02T04:32:41.060Z,19.51
2018-07-02T04:33:41.033Z,19.54
2018-07-02T04:34:41.031Z,19.47
2018-07-02T04:36:02.027Z,19.58
2018-07-02T04:36:41.011Z,19.58
2018-07-02T04:37:41.009Z,19.47
2018-07-02T04:38:40.996Z,19.54
2018-07-02T04:39:41.009Z,19.55
2018-07-02T04:40:40.980Z,19.58
2018-07-02T04:42:01.981Z,19.61
2018-07-02T04:42:40.976Z,19.61
2018-07-02T04:43:40.958Z,19.54
2018-07-02T04:44:40.950Z,19.59
2018-07-02T04:45:40.943Z,19.63
2018-07-02T04:46:40.939Z,19.48
2018-07-02T04:48:01.945Z,19.51
2018-07-02T04:48:40.919Z,19.55
2018-07-02T04:49:40.913Z,19.46
2018-07-02T04:50:40.907Z,19.48
2018-07-02T04:51:40.898Z,19.47
2018-07-02T04:52:40.889Z,19.41
2018-07-02T04:54:01.889Z,19.50
2018-07-02T04:54:40.875Z,19.36
2018-07-02T04:55:40.872Z,19.58
2018-07-02T04:56:40.858Z,19.54
2018-07-02T04:57:40.848Z,19.55
2018-07-02T04:58:40.844Z,19.58
2018-07-02T05:00:01.841Z,19.59
2018-07-02T05:00:40.831Z,19.54
2018-07-02T05:01:40.825Z,19.62
2018-07-02T05:02:40.815Z,19.71
2018-07-02T05:03:40.805Z,19.65
2018-07-02T05:04:40.800Z,19.66
2018-07-02T05:06:01.799Z,19.66
2018-07-02T05:06:40.802Z,19.73
2018-07-02T05:07:40.819Z,19.73
2018-07-02T05:08:40.765Z,19.71
2018-07-02T05:09:40.754Z,19.87
2018-07-02T05:10:40.757Z,19.80
2018-07-02T05:12:01.753Z,19.77
2018-07-02T05:12:40.735Z,19.83
2018-07-02T05:13:40.725Z,19.84
2018-07-02T05:14:40.716Z,19.78
2018-07-02T05:15:40.715Z,19.78
2018-07-02T05:16:40.709Z,19.84
2018-07-02T05:18:01.697Z,19.83
2018-07-02T05:18:40.687Z,19.81
2018-07-02T05:19:40.679Z,19.87
2018-07-02T05:20:40.677Z,19.81
2018-07-02T05:21:40.663Z,19.88
2018-07-02T05:22:40.662Z,19.91
2018-07-02T05:24:01.655Z,19.86
2018-07-02T05:24:40.642Z,19.87
2018-07-02T05:25:40.640Z,19.88
2018-07-02T05:26:40.628Z,19.92
2018-07-02T05:27:40.620Z,19.91
2018-07-02T05:28:40.615Z,19.99
2018-07-02T05:30:01.614Z,20.01
2018-07-02T05:30:40.595Z,19.99
2018-07-02T05:31:40.590Z,20.02
2018-07-02T05:32:40.584Z,20.05
2018-07-02T05:33:40.616Z,19.99
2018-07-02T05:34:40.568Z,20.11
2018-07-02T05:36:01.567Z,20.11
2018-07-02T05:36:40.558Z,20.10
2018-07-02T05:37:40.541Z,20.14
2018-07-02T05:38:40.541Z,20.13
2018-07-02T05:39:40.527Z,20.14
2018-07-02T05:40:40.525Z,20.08
2018-07-02T05:42:01.521Z,20.16
2018-07-02T05:42:40.501Z,20.17
2018-07-02T05:43:40.503Z,20.18
2018-07-02T05:44:40.489Z,20.24
2018-07-02T05:45:40.482Z,20.23
2018-07-02T05:46:40.474Z,20.35
2018-07-02T05:48:01.470Z,20.24
2018-07-02T05:48:40.515Z,20.35
2018-07-02T05:49:40.448Z,20.31
2018-07-02T05:50:40.446Z,20.31
2018-07-02T05:51:40.432Z,20.32
2018-07-02T05:52:40.429Z,20.36
2018-07-02T05:54:01.429Z,20.39
2018-07-02T05:54:40.417Z,20.43
2018-07-02T05:55:40.407Z,20.39
2018-07-02T05:56:40.401Z,20.47
2018-07-02T05:57:40.395Z,20.41
2018-07-02T05:58:40.387Z,20.47
2018-07-02T06:00:01.385Z,20.50
2018-07-02T06:00:40.386Z,20.55
2018-07-02T06:01:40.362Z,20.57
2018-07-02T06:02:40.357Z,20.59
2018-07-02T06:03:40.351Z,20.54
2018-07-02T06:04:40.339Z,20.61
2018-07-02T06:06:01.339Z,20.72
2018-07-02T06:06:40.321Z,20.84
2018-07-02T06:07:40.317Z,20.82
2018-07-02T06:08:40.314Z,20.72
2018-07-02T06:09:40.302Z,20.85
2018-07-02T06:10:40.292Z,20.95
2018-07-02T06:12:01.303Z,20.97
2018-07-02T06:12:40.282Z,21.03
2018-07-02T06:13:40.278Z,21.12
2018-07-02T06:14:40.272Z,21.17
2018-07-02T06:15:40.264Z,21.24
2018-07-02T06:16:40.369Z,21.35
2018-07-02T06:18:01.252Z,21.43
2018-07-02T06:18:40.237Z,21.46
2018-07-02T06:19:40.233Z,21.52
2018-07-02T06:20:40.223Z,21.56
2018-07-02T06:21:40.222Z,21.62
2018-07-02T06:22:40.210Z,21.65
2018-07-02T06:24:01.209Z,21.80
2018-07-02T06:24:40.204Z,21.91
2018-07-02T06:25:40.188Z,21.86
2018-07-02T06:26:40.180Z,21.88
2018-07-02T06:27:40.177Z,22.03
2018-07-02T06:28:40.172Z,22.14
2018-07-02T06:30:01.170Z,22.09
2018-07-02T06:30:40.152Z,22.27
2018-07-02T06:31:40.146Z,22.35
2018-07-02T06:32:40.139Z,22.31
2018-07-02T06:33:40.132Z,22.36
2018-07-02T06:34:40.125Z,22.31
2018-07-02T06:36:01.137Z,22.25
2018-07-02T06:36:40.115Z,22.28
2018-07-02T06:37:40.105Z,22.31
2018-07-02T06:38:40.097Z,22.21
2018-07-02T06:39:40.097Z,22.20
2018-07-02T06:40:40.090Z,22.27
2018-07-02T06:42:01.136Z,22.35
2018-07-02T06:42:40.075Z,22.37
2018-07-02T06:43:40.064Z,22.51
2018-07-02T06:44:40.058Z,22.55
2018-07-02T06:45:40.052Z,22.43
2018-07-02T06:46:40.048Z,22.45
2018-07-02T06:48:01.050Z,22.43
2018-07-02T06:48:40.036Z,22.45
2018-07-02T06:49:40.029Z,22.46
2018-07-02T06:50:40.020Z,22.47
2018-07-02T06:51:40.016Z,22.51
2018-07-02T06:52:40.011Z,22.49
2018-07-02T06:54:01.009Z,22.42
2018-07-02T06:54:39.997Z,22.42
2018-07-02T06:55:39.993Z,22.39
2018-07-02T06:56:39.982Z,22.40
2018-07-02T06:57:39.976Z,22.39
2018-07-02T06:58:39.993Z,22.39
2018-07-02T07:00:00.968Z,22.35
2018-07-02T07:00:39.968Z,22.51
2018-07-02T07:01:39.955Z,22.46
2018-07-02T07:02:39.940Z,22.55
2018-07-02T07:03:39.940Z,22.61
2018-07-02T07:04:39.933Z,22.73
2018-07-02T07:06:00.929Z,22.73
2018-07-02T07:06:39.921Z,22.88
2018-07-02T07:07:39.914Z,23.05
2018-07-02T07:08:39.979Z,23.05
2018-07-02T07:09:39.897Z,23.00
2018-07-02T07:10:39.891Z,23.07
2018-07-02T07:12:00.893Z,23.07
2018-07-02T07:12:39.880Z,23.05
2018-07-02T07:13:39.873Z,22.98
2018-07-02T07:14:39.864Z,22.92
2018-07-02T07:15:39.916Z,22.95
2018-07-02T07:16:39.856Z,23.10
2018-07-02T07:18:00.852Z,23.09
2018-07-02T07:18:39.834Z,23.17
2018-07-02T07:19:39.834Z,23.39
2018-07-02T07:20:39.829Z,23.51
2018-07-02T07:21:39.821Z,23.60
2018-07-02T07:22:39.818Z,23.66
2018-07-02T07:24:00.819Z,23.79
2018-07-02T07:24:39.806Z,23.85
2018-07-02T07:25:39.859Z,23.91
2018-07-02T07:26:39.793Z,23.87
2018-07-02T07:27:39.794Z,23.87
2018-07-02T07:28:39.779Z,24.00
2018-07-02T07:30:00.793Z,23.95
2018-07-02T07:30:39.767Z,23.95
2018-07-02T07:31:39.767Z,24.08
2018-07-02T07:32:39.757Z,24.10
2018-07-02T07:33:39.752Z,24.09
2018-07-02T07:34:39.741Z,23.94
2018-07-02T07:36:00.748Z,23.94
2018-07-02T07:36:39.740Z,24.16
2018-07-02T07:37:39.728Z,24.13
2018-07-02T07:38:39.721Z,24.16
2018-07-02T07:39:39.721Z,24.22
2018-07-02T07:40:39.715Z,24.06
2018-07-02T07:42:00.713Z,24.13
2018-07-02T07:42:39.701Z,24.15
2018-07-02T07:43:39.699Z,24.27
2018-07-02T07:44:39.687Z,24.30
2018-07-02T07:45:39.686Z,24.45
2018-07-02T07:46:39.677Z,24.55
2018-07-02T07:48:00.676Z,24.57
2018-07-02T07:48:39.663Z,24.71
2018-07-02T07:49:39.662Z,24.84
2018-07-02T07:50:39.657Z,24.85
2018-07-02T07:51:39.647Z,24.87
2018-07-02T07:52:39.645Z,24.95
2018-07-02T07:54:00.643Z,24.93
2018-07-02T07:54:39.631Z,24.99
2018-07-02T07:55:39.628Z,24.90
2018-07-02T07:56:39.626Z,24.93
2018-07-02T07:57:39.617Z,24.95
2018-07-02T07:58:39.609Z,25.00
2018-07-02T08:00:00.614Z,25.09
2018-07-02T08:00:39.600Z,25.10
2018-07-02T08:01:39.589Z,25.09
2018-07-02T08:02:39.592Z,25.09
2018-07-02T08:03:39.594Z,25.13
2018-07-02T08:04:39.588Z,25.08
2018-07-02T08:06:00.582Z,25.10
2018-07-02T08:06:39.565Z,25.25
2018-07-02T08:07:39.563Z,25.30
2018-07-02T08:08:39.557Z,25.35
2018-07-02T08:09:39.551Z,25.14
2018-07-02T08:10:39.550Z,25.25
2018-07-02T08:12:00.552Z,25.25
2018-07-02T08:12:39.542Z,25.25
2018-07-02T08:13:39.534Z,25.23
2018-07-02T08:14:39.526Z,25.17
2018-07-02T08:15:39.522Z,24.99
2018-07-02T08:16:39.520Z,25.08
2018-07-02T08:18:00.518Z,25.02
2018-07-02T08:18:39.505Z,25.13
2018-07-02T08:19:39.502Z,25.09
2018-07-02T08:20:39.504Z,25.15
2018-07-02T08:21:39.485Z,25.25
2018-07-02T08:22:39.487Z,25.25
2018-07-02T08:24:00.493Z,25.25
2018-07-02T08:24:39.476Z,25.28
2018-07-02T08:25:39.474Z,25.13
2018-07-02T08:26:39.474Z,25.23
2018-07-02T08:27:39.464Z,25.33
2018-07-02T08:28:39.460Z,25.32
2018-07-02T08:30:00.455Z,25.33
2018-07-02T08:30:39.448Z,25.43
2018-07-02T08:31:39.442Z,25.43
2018-07-02T08:32:39.437Z,25.47
2018-07-02T08:33:39.438Z,25.43
2018-07-02T08:34:39.425Z,25.43
2018-07-02T08:36:00.428Z,25.50
2018-07-02T08:36:39.420Z,25.51
2018-07-02T08:37:39.410Z,25.54
2018-07-02T08:38:39.405Z,25.62
2018-07-02T08:39:39.406Z,25.65
2018-07-02T08:40:39.395Z,25.75
2018-07-02T08:42:00.404Z,25.82
2018-07-02T08:42:39.387Z,25.94
2018-07-02T08:43:39.380Z,25.88
2018-07-02T08:44:39.379Z,25.98
2018-07-02T08:45:39.373Z,26.01
2018-07-02T08:46:39.401Z,25.99
2018-07-02T08:48:00.371Z,26.05
2018-07-02T08:48:39.360Z,26.01
2018-07-02T08:49:39.354Z,26.01
2018-07-02T08:50:39.346Z,26.12
2018-07-02T08:51:39.345Z,26.15
2018-07-02T08:52:39.366Z,26.21
2018-07-02T08:54:00.345Z,26.20
2018-07-02T08:54:39.328Z,26.23
2018-07-02T08:55:39.326Z,26.29
2018-07-02T08:56:39.321Z,26.30
2018-07-02T08:57:39.321Z,26.33
2018-07-02T08:58:39.316Z,26.30
2018-07-02T09:00:00.319Z,26.30
2018-07-02T09:00:39.305Z,26.29
2018-07-02T09:01:39.299Z,26.28
2018-07-02T09:02:39.295Z,26.30
2018-07-02T09:03:39.291Z,26.36
2018-07-02T09:04:39.290Z,26.36
2018-07-02T09:06:00.290Z,26.32
2018-07-02T09:06:39.275Z,26.43
2018-07-02T09:07:39.281Z,26.43
2018-07-02T09:08:39.271Z,26.36
2018-07-02T09:09:39.260Z,26.52
2018-07-02T09:10:39.254Z,26.55
2018-07-02T09:12:00.264Z,26.51
2018-07-02T09:12:39.249Z,26.57
2018-07-02T09:13:39.249Z,26.52
2018-07-02T09:14:39.255Z,26.51
2018-07-02T09:15:39.242Z,26.60
2018-07-02T09:16:39.236Z,26.63
2018-07-02T09:18:00.242Z,26.70
2018-07-02T09:18:39.222Z,26.69
2018-07-02T09:19:39.223Z,26.66
2018-07-02T09:20:39.257Z,26.75
2018-07-02T09:21:39.219Z,26.85
2018-07-02T09:22:39.212Z,26.91
2018-07-02T09:24:00.217Z,27.02
2018-07-02T09:24:39.197Z,26.95
2018-07-02T09:25:39.197Z,27.00
2018-07-02T09:26:39.199Z,27.10
2018-07-02T09:27:39.196Z,27.12
2018-07-02T09:28:39.182Z,27.19
2018-07-02T09:30:00.214Z,27.24
2018-07-02T09:30:39.170Z,27.28
2018-07-02T09:31:39.166Z,27.27
2018-07-02T09:32:39.238Z,27.21
2018-07-02T09:33:39.160Z,27.22
2018-07-02T09:34:39.159Z,27.19
2018-07-02T09:36:00.164Z,27.14
2018-07-02T09:36:39.155Z,27.25
2018-07-02T09:37:39.153Z,27.29
2018-07-02T09:38:39.141Z,27.28
2018-07-02T09:39:39.139Z,27.32
2018-07-02T09:40:39.139Z,27.29
2018-07-02T09:42:00.140Z,27.31
2018-07-02T09:42:39.133Z,27.32
2018-07-02T09:43:39.123Z,27.37
2018-07-02T09:44:39.124Z,27.41
2018-07-02T09:45:39.112Z,27.46
2018-07-02T09:46:39.114Z,27.44
2018-07-02T09:48:00.133Z,27.43
2018-07-02T09:48:39.107Z,27.44
2018-07-02T09:49:39.109Z,27.43
2018-07-02T09:50:39.097Z,27.43
2018-07-02T09:51:39.099Z,27.37
2018-07-02T09:52:39.109Z,27.44
2018-07-02T09:54:00.093Z,27.50
2018-07-02T09:54:39.080Z,27.40
2018-07-02T09:55:39.084Z,27.43
2018-07-02T09:56:39.074Z,27.51
2018-07-02T09:57:39.072Z,27.51
2018-07-02T09:58:39.066Z,27.50
2018-07-02T10:00:00.099Z,27.51
2018-07-02T10:00:39.069Z,27.62
2018-07-02T10:01:39.059Z,27.55
2018-07-02T10:02:39.061Z,27.60
2018-07-02T10:03:39.052Z,27.60
2018-07-02T10:04:39.050Z,27.54
2018-07-02T10:06:00.049Z,27.62
2018-07-02T10:06:39.208Z,27.69
2018-07-02T10:07:39.160Z,27.82
2018-07-02T10:08:39.047Z,27.75
2018-07-02T10:09:39.036Z,27.81
2018-07-02T10:10:39.026Z,27.81
2018-07-02T10:12:00.032Z,27.74
2018-07-02T10:12:39.069Z,27.90
2018-07-02T10:13:39.015Z,27.81
2018-07-02T10:14:39.016Z,27.82
2018-07-02T10:15:39.010Z,27.84
2018-07-02T10:16:39.000Z,27.96
2018-07-02T10:18:00.021Z,27.94
2018-07-02T10:18:38.998Z,27.94
2018-07-02T10:19:38.998Z,27.92
2018-07-02T10:20:38.990Z,27.94
2018-07-02T10:21:38.988Z,27.88
2018-07-02T10:22:38.983Z,27.92
2018-07-02T10:24:00.056Z,27.93
2018-07-02T10:24:38.979Z,27.84
2018-07-02T10:25:38.976Z,27.88
2018-07-02T10:26:38.972Z,27.77
2018-07-02T10:27:38.969Z,27.67
2018-07-02T10:28:38.962Z,27.79
2018-07-02T10:29:59.976Z,27.75
2018-07-02T10:30:38.955Z,27.88
2018-07-02T10:31:38.957Z,27.92
2018-07-02T10:32:38.947Z,27.94
2018-07-02T10:33:38.942Z,27.88
2018-07-02T10:34:38.937Z,27.90
2018-07-02T10:35:59.949Z,27.92
2018-07-02T10:36:38.933Z,27.96
2018-07-02T10:37:38.929Z,27.97
2018-07-02T10:38:38.932Z,27.90
2018-07-02T10:39:38.927Z,27.99
2018-07-02T10:40:38.930Z,28.04
2018-07-02T10:41:59.930Z,28.06
2018-07-02T10:42:38.918Z,28.15
2018-07-02T10:43:38.916Z,28.11
2018-07-02T10:44:38.914Z,28.09
2018-07-02T10:45:38.910Z,28.15
2018-07-02T10:46:38.900Z,28.15
2018-07-02T10:47:59.910Z,28.14
2018-07-02T10:48:38.899Z,28.17
2018-07-02T10:49:38.891Z,28.22
2018-07-02T10:50:38.888Z,28.31
2018-07-02T10:51:38.883Z,28.27
2018-07-02T10:52:38.888Z,28.31
2018-07-02T10:53:59.886Z,28.31
2018-07-02T10:54:38.878Z,28.37
2018-07-02T10:55:38.900Z,28.40
2018-07-02T10:56:38.873Z,28.40
2018-07-02T10:57:38.867Z,28.34
2018-07-02T10:58:38.862Z,28.40
2018-07-02T10:59:59.867Z,28.39
2018-07-02T11:00:38.855Z,28.41
2018-07-02T11:01:38.851Z,28.41
2018-07-02T11:02:38.853Z,28.49
2018-07-02T11:03:38.847Z,28.56
2018-07-02T11:04:38.850Z,28.77
2018-07-02T11:05:59.850Z,28.77
2018-07-02T11:06:38.836Z,28.86
2018-07-02T11:07:38.838Z,28.89
2018-07-02T11:08:38.838Z,28.92
2018-07-02T11:09:38.838Z,28.88
2018-07-02T11:10:38.829Z,28.96
2018-07-02T11:11:59.832Z,29.02
2018-07-02T11:12:38.818Z,28.95
2018-07-02T11:13:38.816Z,29.06
2018-07-02T11:14:38.815Z,29.02
2018-07-02T11:15:38.815Z,29.04
2018-07-02T11:16:38.812Z,28.92
2018-07-02T11:17:59.817Z,29.00
2018-07-02T11:18:38.805Z,29.06
2018-07-02T11:19:38.799Z,29.11
2018-07-02T11:20:38.808Z,29.16
2018-07-02T11:21:38.802Z,29.21
2018-07-02T11:22:38.792Z,29.14
2018-07-02T11:23:59.803Z,29.23
2018-07-02T11:24:38.790Z,29.21
2018-07-02T11:25:38.796Z,29.21
2018-07-02T11:26:38.781Z,29.14
2018-07-02T11:27:38.781Z,29.15
2018-07-02T11:28:38.776Z,29.23
2018-07-02T11:29:59.784Z,29.37
2018-07-02T11:30:38.788Z,29.30
2018-07-02T11:31:38.774Z,29.49
2018-07-02T11:32:38.771Z,29.52
2018-07-02T11:33:38.764Z,29.51
2018-07-02T11:34:38.762Z,29.49
2018-07-02T11:35:59.775Z,29.51
2018-07-02T11:36:38.760Z,29.46
2018-07-02T11:37:38.752Z,29.42
2018-07-02T11:38:38.755Z,29.45
2018-07-02T11:39:38.751Z,29.48
2018-07-02T11:40:38.749Z,29.51
2018-07-02T11:41:59.756Z,29.52
2018-07-02T11:42:38.741Z,29.63
2018-07-02T11:43:38.746Z,29.58
2018-07-02T11:44:38.737Z,29.43
2018-07-02T11:45:38.735Z,29.60
2018-07-02T11:46:38.737Z,29.64
2018-07-02T11:47:59.745Z,29.67
2018-07-02T11:48:38.734Z,29.67
2018-07-02T11:49:38.735Z,29.64
2018-07-02T11:50:38.725Z,29.67
2018-07-02T11:51:38.725Z,29.73
2018-07-02T11:52:38.765Z,29.87
2018-07-02T11:53:59.727Z,29.90
2018-07-02T11:54:38.723Z,29.92
2018-07-02T11:55:38.728Z,29.98
2018-07-02T11:56:38.722Z,29.90
2018-07-02T11:57:38.711Z,29.95
2018-07-02T11:58:38.712Z,29.98
2018-07-02T11:59:59.719Z,30.08
2018-07-02T12:00:38.706Z,30.10
2018-07-02T12:01:38.708Z,30.17
2018-07-02T12:02:38.706Z,30.04
2018-07-02T12:03:38.704Z,30.07
2018-07-02T12:04:38.699Z,29.94
2018-07-02T12:05:59.699Z,30.04
2018-07-02T12:06:38.694Z,30.01
2018-07-02T12:07:38.689Z,30.02
2018-07-02T12:08:38.696Z,29.90
2018-07-02T12:09:38.689Z,29.90
2018-07-02T12:10:38.686Z,29.94
2018-07-02T12:11:59.694Z,29.98
2018-07-02T12:12:38.678Z,29.94
2018-07-02T12:13:38.681Z,29.94
2018-07-02T12:14:38.680Z,29.83
2018-07-02T12:15:38.678Z,29.89
2018-07-02T12:16:38.679Z,29.87
2018-07-02T12:17:59.685Z,30.01
2018-07-02T12:18:38.676Z,29.94
2018-07-02T12:19:38.671Z,29.95
2018-07-02T12:20:38.669Z,29.95
2018-07-02T12:21:38.665Z,29.95
2018-07-02T12:22:38.664Z,29.97
2018-07-02T12:23:59.675Z,29.94
2018-07-02T12:24:38.664Z,30.07
2018-07-02T12:25:38.660Z,30.19
2018-07-02T12:26:38.669Z,30.19
2018-07-02T12:27:38.658Z,30.27
2018-07-02T12:28:38.656Z,30.27
2018-07-02T12:29:59.665Z,30.26
2018-07-02T12:30:38.650Z,30.19
2018-07-02T12:31:38.656Z,30.19
2018-07-02T12:32:38.645Z,30.35
2018-07-02T12:33:38.647Z,30.32
2018-07-02T12:34:38.645Z,30.39
2018-07-02T12:35:59.651Z,30.43
2018-07-02T12:36:38.649Z,30.38
2018-07-02T12:37:38.641Z,30.39
2018-07-02T12:38:38.634Z,30.32
2018-07-02T12:39:38.633Z,30.42
2018-07-02T12:40:38.632Z,30.38
2018-07-02T12:41:59.638Z,30.32
2018-07-02T12:42:38.636Z,30.34
2018-07-02T12:43:38.628Z,30.19
2018-07-02T12:44:38.628Z,30.38
2018-07-02T12:45:38.627Z,30.34
2018-07-02T12:46:38.673Z,30.27
2018-07-02T12:47:59.636Z,30.31
2018-07-02T12:48:38.623Z,30.38
2018-07-02T12:49:38.630Z,30.31
2018-07-02T12:50:38.620Z,30.27
2018-07-02T12:51:38.617Z,30.26